Time;durP1;ratioP1;P1;durP2;ratioP2;P2;SDS_P1;SDS_P2;PMS_P1;PMS_P2;Temp;Humidity;BMP_temperature;BMP_pressure;BME280_temperature;BME280_humidity;BME280_pressure;Samples;Min_cycle;Max_cycle;Signal;HPM_P1;HPM_P2
2022/11/16 00:01:29;;;;;;;2.88;1.20;;;18.70;1.00;;;;;;5055308;28;20559;-53
2022/11/16 00:03:58;;;;;;;3.33;1.55;;;18.70;1.00;;;;;;5055139;28;20089;-53
2022/11/16 00:06:26;;;;;;;1.60;1.10;;;18.70;1.00;;;;;;5054794;28;20103;-53
2022/11/16 00:11:44;;;;;;;3.85;2.08;;;18.70;1.00;;;;;;5055005;28;20041;-56
2022/11/16 00:14:11;;;;;;;1.58;1.10;;;18.70;1.00;;;;;;5054746;28;20053;-57
2022/11/16 00:16:39;;;;;;;2.35;1.67;;;18.70;1.00;;;;;;5054698;28;20558;-53
2022/11/16 00:19:06;;;;;;;1.60;1.20;;;18.70;1.00;;;;;;5054884;28;20386;-54
2022/11/16 00:21:33;;;;;;;2.17;1.20;;;18.70;1.00;;;;;;5054839;28;20482;-57
2022/11/16 00:24:01;;;;;;;2.90;1.15;;;18.70;1.00;;;;;;5054935;28;20045;-56
2022/11/16 00:26:28;;;;;;;2.63;1.10;;;18.60;1.00;;;;;;5054755;28;20052;-53
2022/11/16 00:28:56;;;;;;;1.58;1.20;;;18.60;1.00;;;;;;5053025;28;20045;-53
2022/11/16 00:31:23;;;;;;;2.15;1.20;;;18.60;1.00;;;;;;5054548;28;20400;-52
2022/11/16 00:33:50;;;;;;;2.00;1.27;;;18.60;1.00;;;;;;5054567;28;20131;-53
2022/11/16 00:36:17;;;;;;;1.70;1.08;;;18.60;1.00;;;;;;5054536;28;20041;-53
2022/11/16 00:38:45;;;;;;;2.10;1.42;;;18.60;1.00;;;;;;5052955;28;20064;-53
2022/11/16 00:41:12;;;;;;;1.92;1.27;;;18.60;1.00;;;;;;5054454;28;20106;-55
2022/11/16 00:43:39;;;;;;;2.30;1.23;;;18.50;1.00;;;;;;5054311;28;20061;-53
2022/11/16 00:46:07;;;;;;;1.83;1.13;;;18.50;1.00;;;;;;5054450;28;20044;-54
2022/11/16 00:48:34;;;;;;;1.88;1.23;;;18.50;1.00;;;;;;5054276;28;20044;-55
2022/11/16 00:51:05;;;;;;;1.83;1.33;;;18.50;1.00;;;;;;5054412;28;20617;-55
2022/11/16 00:53:32;;;;;;;2.30;1.30;;;18.40;1.00;;;;;;5053017;28;20053;-57
2022/11/16 00:55:58;;;;;;;2.10;1.30;;;18.50;1.00;;;;;;5054183;28;20098;-56
2022/11/16 00:58:25;;;;;;;1.70;0.95;;;18.40;1.00;;;;;;5052632;28;20045;-49
2022/11/16 01:01:06;;;;;;;2.20;1.17;;;18.40;1.00;;;;;;5052928;28;20049;-51
2022/11/16 01:03:34;;;;;;;2.25;1.63;;;18.40;1.00;;;;;;5052839;28;20098;-52
2022/11/16 01:06:03;;;;;;;1.67;0.82;;;18.40;1.00;;;;;;5054082;28;20095;-52
2022/11/16 01:08:30;;;;;;;1.92;1.10;;;18.40;1.00;;;;;;5059138;28;20052;-54
2022/11/16 01:12:07;;;;;;;1.75;1.05;;;18.40;1.00;;;;;;5073853;28;20055;-52
2022/11/16 01:13:47;;;;;;;2.10;0.93;;;18.30;1.00;;;;;;5073908;28;20068;-56
2022/11/16 01:16:16;;;;;;;1.95;1.30;;;18.30;1.00;;;;;;5073709;28;20474;-55
2022/11/16 01:18:47;;;;;;;6.07;1.30;;;18.30;1.00;;;;;;5072527;28;20441;-51
2022/11/16 01:21:14;;;;;;;1.70;1.05;;;18.30;1.00;;;;;;5073577;28;20056;-53
2022/11/16 01:23:41;;;;;;;1.70;1.00;;;18.30;1.00;;;;;;5073640;28;20562;-51
2022/11/16 01:26:08;;;;;;;2.65;0.70;;;18.30;1.00;;;;;;5073604;28;20571;-56
2022/11/16 01:28:36;;;;;;;2.10;1.38;;;18.30;1.00;;;;;;5072011;28;20055;-55
2022/11/16 01:31:03;;;;;;;2.38;1.17;;;18.20;1.00;;;;;;5073433;28;20040;-54
2022/11/16 01:33:34;;;;;;;1.60;1.05;;;18.30;1.00;;;;;;5072182;28;20076;-54
2022/11/16 01:36:01;;;;;;;2.05;1.05;;;18.20;1.00;;;;;;5072033;28;20051;-56
2022/11/16 01:38:28;;;;;;;1.58;1.17;;;18.20;1.00;;;;;;5071924;28;20136;-55
2022/11/16 01:40:56;;;;;;;1.95;1.13;;;18.20;1.00;;;;;;5072014;28;20036;-56
2022/11/16 01:43:26;;;;;;;3.22;1.13;;;18.20;1.00;;;;;;5071862;28;20048;-54
2022/11/16 01:45:59;;;;;;;2.22;1.10;;;18.20;1.00;;;;;;5071879;28;20098;-53
2022/11/16 01:48:29;;;;;;;2.33;1.27;;;18.20;1.00;;;;;;5073084;28;20059;-52
2022/11/16 01:50:57;;;;;;;2.08;1.15;;;18.20;1.00;;;;;;5071717;28;20506;-55
2022/11/16 01:53:26;;;;;;;1.98;1.02;;;18.10;1.00;;;;;;5071795;28;20040;-55
2022/11/16 01:55:55;;;;;;;2.08;0.77;;;18.20;1.00;;;;;;5071855;28;20127;-56
2022/11/16 01:58:38;;;;;;;2.13;1.52;;;18.10;1.00;;;;;;5071601;28;20068;-53
2022/11/16 02:01:31;;;;;;;1.38;0.80;;;18.10;1.00;;;;;;5070793;28;20056;-53
2022/11/16 02:04:00;;;;;;;1.48;0.80;;;18.10;1.00;;;;;;5071695;28;20413;-56
2022/11/16 02:06:58;;;;;;;2.78;1.00;;;18.10;1.00;;;;;;5071861;28;20053;-54
2022/11/16 02:10:09;;;;;;;1.80;0.90;;;18.10;1.00;;;;;;5071261;28;20045;-55
2022/11/16 02:12:39;;;;;;;1.42;1.10;;;18.10;1.00;;;;;;5071724;28;20049;-56
2022/11/16 02:15:27;;;;;;;2.42;1.13;;;18.10;1.00;;;;;;5071855;28;20048;-55
2022/11/16 02:18:48;;;;;;;1.50;1.10;;;18.00;1.00;;;;;;5073035;28;20055;-56
2022/11/16 02:21:39;;;;;;;1.90;1.13;;;18.00;1.00;;;;;;5059142;28;20048;-57
2022/11/16 02:24:31;;;;;;;1.80;1.25;;;18.00;1.00;;;;;;5071653;28;20036;-56
2022/11/16 02:27:16;;;;;;;1.52;1.15;;;18.00;1.00;;;;;;5054988;28;20049;-56
2022/11/16 02:29:54;;;;;;;1.30;1.20;;;18.00;1.00;;;;;;5072190;28;20047;-56
2022/11/16 02:32:45;;;;;;;1.85;1.05;;;18.00;1.00;;;;;;5054892;28;20072;-55
2022/11/16 02:35:24;;;;;;;2.03;1.17;;;17.90;1.00;;;;;;5071371;28;20045;-53
2022/11/16 02:38:00;;;;;;;1.60;1.15;;;17.90;1.00;;;;;;5071389;28;20406;-53
2022/11/16 02:40:30;;;;;;;2.20;1.10;;;17.90;1.00;;;;;;5070990;28;20114;-54
2022/11/16 02:43:03;;;;;;;1.95;0.80;;;17.90;1.00;;;;;;5071378;28;20127;-57
2022/11/16 02:45:36;;;;;;;1.50;0.88;;;17.90;1.00;;;;;;5071300;28;20048;-53
2022/11/16 02:48:11;;;;;;;1.23;0.70;;;17.90;1.00;;;;;;5072725;28;20041;-56
2022/11/16 02:50:40;;;;;;;2.88;1.15;;;17.90;1.00;;;;;;5054534;28;20044;-58
2022/11/16 02:53:08;;;;;;;1.42;1.00;;;17.90;1.00;;;;;;5072376;28;20111;-53
2022/11/16 02:55:35;;;;;;;1.98;0.60;;;17.80;1.00;;;;;;5072614;28;20041;-55
2022/11/16 02:58:09;;;;;;;1.50;0.70;;;17.80;1.00;;;;;;5072549;28;20436;-55
2022/11/16 03:00:50;;;;;;;1.27;0.68;;;17.80;1.00;;;;;;5070746;28;20102;-56
2022/11/16 03:03:40;;;;;;;1.45;0.93;;;17.80;1.00;;;;;;5072434;28;20389;-54
2022/11/16 03:06:12;;;;;;;1.15;0.50;;;17.80;1.00;;;;;;5071323;28;20045;-55
2022/11/16 03:08:42;;;;;;;;;;;17.80;1.00;;;;;;5071243;28;20049;-56
2022/11/16 03:14:10;;;;;;;1.58;1.23;;;17.80;1.00;;;;;;5071105;28;20052;-52
2022/11/16 03:16:47;;;;;;;2.47;0.60;;;17.80;1.00;;;;;;5070917;28;20037;-55
2022/11/16 03:19:20;;;;;;;2.13;1.15;;;17.80;1.00;;;;;;5072073;28;20110;-56
2022/11/16 03:21:56;;;;;;;1.25;0.50;;;17.80;1.00;;;;;;5070862;28;20547;-54
2022/11/16 03:24:23;;;;;;;2.47;0.75;;;17.80;1.00;;;;;;5071038;28;20040;-55
2022/11/16 03:26:56;;;;;;;2.85;1.13;;;17.70;1.00;;;;;;5070716;28;20555;-57
2022/11/16 03:29:47;;;;;;;1.75;0.50;;;17.70;1.00;;;;;;5070488;28;20520;-56
2022/11/16 03:32:33;;;;;;;1.27;0.50;;;17.70;1.00;;;;;;5070843;28;20044;-55
2022/11/16 03:35:30;;;;;;;1.27;0.70;;;17.70;1.00;;;;;;5070834;28;20051;-57
2022/11/16 03:38:00;;;;;;;2.95;0.65;;;17.70;1.00;;;;;;5044237;28;20045;-56
2022/11/16 03:40:31;;;;;;;1.30;0.68;;;17.70;1.00;;;;;;5071092;28;20087;-54
2022/11/16 03:43:01;;;;;;;1.20;0.50;;;17.70;1.00;;;;;;5074333;28;20045;-56
2022/11/16 03:45:30;;;;;;;1.27;0.70;;;17.70;1.00;;;;;;5074278;28;20068;-53
2022/11/16 03:47:57;;;;;;;1.20;0.70;;;17.70;1.00;;;;;;5075652;28;20048;-56
2022/11/16 03:50:24;;;;;;;1.95;0.98;;;17.70;1.00;;;;;;5073869;28;20098;-56
2022/11/16 03:52:52;;;;;;;1.88;0.90;;;17.70;1.00;;;;;;5074234;28;20117;-51
2022/11/16 03:55:19;;;;;;;1.23;0.68;;;17.60;1.00;;;;;;5073929;28;20127;-54
2022/11/16 03:57:46;;;;;;;0.93;0.50;;;17.60;1.00;;;;;;5074003;28;20047;-56
2022/11/16 04:00:14;;;;;;;1.20;0.60;;;17.60;1.00;;;;;;5073671;28;20041;-55
2022/11/16 04:02:41;;;;;;;4.47;1.30;;;17.60;1.00;;;;;;5073973;28;20044;-57
2022/11/16 04:24:50;;;;;;;0.80;0.60;;;17.60;1.00;;;;;;5075203;28;20429;-52
2022/11/16 04:30:09;;;;;;;1.73;0.45;;;17.50;1.00;;;;;;5073341;28;20044;-54
2022/11/16 04:38:09;;;;;;;1.48;0.60;;;17.50;1.00;;;;;;5073285;28;20046;-54
2022/11/16 04:40:36;;;;;;;1.70;0.63;;;17.50;1.00;;;;;;5074315;28;20036;-51
2022/11/16 04:43:04;;;;;;;0.93;0.50;;;17.50;1.00;;;;;;5073267;28;20099;-56
2022/11/16 04:48:23;;;;;;;0.90;0.40;;;17.50;1.00;;;;;;5073042;28;20052;-56
2022/11/16 04:50:52;;;;;;;1.65;0.30;;;17.50;1.00;;;;;;5073041;28;20083;-56
2022/11/16 04:53:21;;;;;;;1.40;0.43;;;17.50;1.00;;;;;;5073136;28;20048;-56
2022/11/16 04:55:55;;;;;;;1.75;0.47;;;17.50;1.00;;;;;;5072907;28;20040;-54
2022/11/16 04:58:27;;;;;;;1.20;0.40;;;17.40;1.00;;;;;;5072863;28;20122;-57
2022/11/16 05:00:54;;;;;;;1.02;0.45;;;17.40;1.00;;;;;;5074102;28;20086;-52
2022/11/16 05:03:21;;;;;;;1.73;0.98;;;17.40;1.00;;;;;;5072779;28;20044;-57
2022/11/16 05:05:49;;;;;;;2.38;0.60;;;17.50;1.00;;;;;;5072871;28;20032;-54
2022/11/16 05:08:16;;;;;;;1.77;0.38;;;17.50;1.00;;;;;;5063604;28;20048;-55
2022/11/16 05:10:44;;;;;;;3.00;0.45;;;17.40;1.00;;;;;;5058550;28;20045;-54
2022/11/16 05:13:11;;;;;;;1.45;0.32;;;17.40;1.00;;;;;;5054137;28;20048;-55
2022/11/16 05:15:38;;;;;;;1.80;0.60;;;17.40;1.00;;;;;;5053234;28;20045;-52
2022/11/16 05:18:05;;;;;;;1.45;0.38;;;17.40;1.00;;;;;;5053709;28;20091;-54
2022/11/16 05:26:08;;;;;;;6.90;0.50;;;17.40;1.00;;;;;;5052652;28;20037;-51
2022/11/16 05:28:36;;;;;;;3.35;0.77;;;17.40;1.00;;;;;;5051992;28;20094;-53
2022/11/16 05:31:03;;;;;;;1.35;0.50;;;17.40;1.00;;;;;;5053161;28;20111;-55
2022/11/16 05:33:31;;;;;;;3.05;0.40;;;17.40;1.00;;;;;;5051769;28;20041;-55
2022/11/16 05:35:58;;;;;;;0.68;0.30;;;17.40;1.00;;;;;;5052106;28;20453;-50
2022/11/16 05:38:25;;;;;;;2.22;0.60;;;17.30;1.00;;;;;;5051729;28;20053;-56
2022/11/16 05:40:55;;;;;;;1.92;0.30;;;17.30;1.00;;;;;;5051890;28;20052;-54
2022/11/16 05:43:23;;;;;;;2.00;0.30;;;17.30;1.00;;;;;;5053347;28;20049;-56
2022/11/16 05:46:07;;;;;;;4.32;1.05;;;17.30;1.00;;;;;;5051955;28;20114;-55
2022/11/16 05:48:34;;;;;;;2.75;0.65;;;17.30;1.00;;;;;;5051401;28;20033;-52
2022/11/16 05:51:03;;;;;;;1.23;0.40;;;17.30;1.00;;;;;;5051913;28;20140;-55
2022/11/16 05:53:32;;;;;;;2.25;0.52;;;17.30;1.00;;;;;;5051848;28;20107;-55
2022/11/16 05:55:59;;;;;;;4.60;0.60;;;17.30;1.00;;;;;;5051682;28;20045;-55
2022/11/16 05:58:28;;;;;;;2.72;0.98;;;17.30;1.00;;;;;;5051256;28;20045;-51
2022/11/16 06:00:57;;;;;;;3.22;0.55;;;17.30;1.00;;;;;;5068105;28;20064;-55
2022/11/16 06:03:30;;;;;;;3.72;1.02;;;17.30;1.00;;;;;;5051223;28;20474;-55
2022/11/16 06:05:58;;;;;;;9.35;0.68;;;17.30;1.00;;;;;;5051695;28;20060;-53
2022/11/16 06:08:27;;;;;;;2.15;0.60;;;17.30;1.00;;;;;;5051345;28;20133;-56
2022/11/16 06:11:00;;;;;;;1.60;0.60;;;17.30;1.00;;;;;;5051404;28;20052;-55
2022/11/16 06:13:28;;;;;;;4.55;0.60;;;17.30;1.00;;;;;;5068523;28;20079;-50
2022/11/16 06:15:58;;;;;;;3.05;0.65;;;17.30;1.00;;;;;;5053138;28;20049;-56
2022/11/16 06:18:25;;;;;;;1.35;0.68;;;17.30;1.00;;;;;;5052436;28;20154;-53
2022/11/16 06:20:52;;;;;;;1.70;0.80;;;17.20;1.00;;;;;;5051100;28;20052;-56
2022/11/16 06:23:20;;;;;;;1.73;0.65;;;17.20;1.00;;;;;;5051355;28;20041;-54
2022/11/16 06:25:53;;;;;;;6.45;2.17;;;17.20;1.00;;;;;;5051555;28;20098;-55
2022/11/16 06:28:22;;;;;;;2.05;0.80;;;17.20;1.00;;;;;;5051196;28;20128;-53
2022/11/16 06:30:49;;;;;;;1.52;0.70;;;17.20;1.00;;;;;;5051296;28;20475;-56
2022/11/16 06:33:17;;;;;;;2.03;0.90;;;17.20;1.00;;;;;;5051241;28;20451;-52
2022/11/16 06:35:44;;;;;;;2.83;1.23;;;17.20;1.00;;;;;;5050959;28;20048;-52
2022/11/16 06:38:18;;;;;;;2.35;0.90;;;17.20;1.00;;;;;;5051373;28;20115;-52
2022/11/16 06:40:52;;;;;;;2.60;0.98;;;17.20;1.00;;;;;;5067937;28;20128;-55
2022/11/16 06:43:22;;;;;;;2.58;0.82;;;17.20;1.00;;;;;;5051337;28;20041;-57
2022/11/16 06:45:53;;;;;;;3.13;1.40;;;17.20;1.00;;;;;;5051065;28;20128;-57
2022/11/16 06:48:21;;;;;;;1.75;0.75;;;17.20;1.00;;;;;;5051083;28;20493;-54
2022/11/16 06:50:49;;;;;;;4.10;1.38;;;17.20;1.00;;;;;;5051082;28;20041;-53
2022/11/16 06:53:18;;;;;;;2.63;0.80;;;17.20;1.00;;;;;;5051091;28;20049;-54
2022/11/16 06:55:49;;;;;;;1.60;0.57;;;17.20;1.00;;;;;;5051125;28;20056;-51
2022/11/16 06:58:17;;;;;;;3.55;1.83;;;17.10;1.00;;;;;;5051068;28;20068;-52
2022/11/16 07:00:44;;;;;;;6.10;1.52;;;17.10;1.00;;;;;;5050752;28;20044;-56
2022/11/16 07:03:13;;;;;;;1.40;0.80;;;17.10;1.00;;;;;;5050907;28;20048;-54
2022/11/16 07:05:43;;;;;;;3.42;1.73;;;17.10;1.00;;;;;;5052222;28;20063;-56
2022/11/16 07:08:13;;;;;;;2.13;1.17;;;17.10;1.00;;;;;;5067806;28;20049;-54
2022/11/16 07:10:40;;;;;;;4.03;1.30;;;17.10;1.00;;;;;;5050403;28;20055;-56
2022/11/16 07:13:07;;;;;;;3.20;1.25;;;17.10;1.00;;;;;;5052223;28;20044;-56
2022/11/16 07:15:37;;;;;;;1.38;0.95;;;17.10;1.00;;;;;;5051845;28;20445;-54
2022/11/16 07:18:05;;;;;;;5.15;0.77;;;17.10;1.00;;;;;;5056046;28;20053;-61
2022/11/16 07:20:36;;;;;;;1.73;0.80;;;17.10;1.00;;;;;;5055093;28;20051;-54
2022/11/16 07:23:04;;;;;;;3.13;1.35;;;17.10;1.00;;;;;;5049656;28;20053;-54
2022/11/16 07:25:39;;;;;;;6.80;1.10;;;17.10;1.00;;;;;;5046219;28;20099;-54
2022/11/16 07:28:07;;;;;;;1.08;0.75;;;17.10;1.00;;;;;;5052000;28;20080;-54
2022/11/16 07:30:34;;;;;;;2.40;1.00;;;17.10;1.00;;;;;;5070860;28;20056;-57
2022/11/16 07:33:08;;;;;;;5.13;1.23;;;17.10;1.00;;;;;;5055767;28;20049;-56
2022/11/16 07:35:54;;;;;;;4.15;1.27;;;17.10;1.00;;;;;;5055980;28;20067;-54
2022/11/16 07:38:20;;;;;;;3.97;1.20;;;17.10;1.00;;;;;;5053896;28;20037;-54
2022/11/16 07:40:47;;;;;;;3.90;1.23;;;17.10;1.00;;;;;;5054511;28;20438;-55
2022/11/16 07:43:17;;;;;;;2.50;1.35;;;17.00;1.00;;;;;;5055592;28;20049;-53
2022/11/16 07:46:16;;;;;;;6.15;0.98;;;17.00;1.00;;;;;;5070948;28;20048;-56
2022/11/16 07:49:03;;;;;;;2.63;1.15;;;17.00;1.00;;;;;;5055493;28;20102;-55
2022/11/16 07:51:59;;;;;;;2.58;0.93;;;17.00;1.00;;;;;;5055470;28;20427;-55
2022/11/16 07:54:49;;;;;;;4.13;1.17;;;17.00;1.00;;;;;;5054142;28;20068;-54
2022/11/16 07:57:16;;;;;;;4.43;1.13;;;17.00;1.00;;;;;;5070300;28;20041;-55
2022/11/16 07:59:43;;;;;;;2.53;1.05;;;17.00;1.00;;;;;;5053203;28;20036;-56
2022/11/16 08:02:11;;;;;;;2.35;0.90;;;17.00;1.00;;;;;;5070439;28;20091;-54
2022/11/16 08:04:39;;;;;;;2.88;1.58;;;17.00;1.00;;;;;;5053879;28;20068;-52
2022/11/16 08:07:07;;;;;;;2.33;1.15;;;17.00;1.00;;;;;;5053639;28;20083;-54
2022/11/16 08:09:41;;;;;;;2.95;0.85;;;17.00;1.00;;;;;;5054530;28;20083;-55
2022/11/16 08:12:12;;;;;;;5.18;1.55;;;17.00;1.00;;;;;;5053861;28;20525;-55
2022/11/16 08:14:39;;;;;;;2.05;0.90;;;17.00;1.00;;;;;;5053613;28;20072;-53
2022/11/16 08:17:07;;;;;;;2.42;1.00;;;17.00;1.00;;;;;;5053510;28;20044;-57
2022/11/16 08:19:35;;;;;;;2.00;0.80;;;17.00;1.00;;;;;;5054499;28;20193;-53
2022/11/16 08:22:02;;;;;;;4.07;1.13;;;17.00;1.00;;;;;;5053396;28;20071;-54
2022/11/16 08:24:32;;;;;;;1.92;0.70;;;17.00;1.00;;;;;;5070640;28;20413;-54
2022/11/16 08:26:59;;;;;;;3.53;1.08;;;17.00;1.00;;;;;;5052997;28;20063;-53
2022/11/16 08:29:26;;;;;;;3.20;1.30;;;17.00;1.00;;;;;;5069764;28;20045;-53
2022/11/16 08:31:56;;;;;;;3.13;1.23;;;17.00;1.00;;;;;;5070025;28;20045;-52
2022/11/16 08:34:23;;;;;;;2.03;0.93;;;17.00;1.00;;;;;;5053206;28;20573;-55
2022/11/16 08:36:54;;;;;;;2.17;0.95;;;17.00;1.00;;;;;;5053246;28;20041;-53
2022/11/16 08:39:27;;;;;;;4.20;1.50;;;17.00;1.00;;;;;;5069670;28;20041;-54
2022/11/16 08:41:54;;;;;;;4.28;1.00;;;17.00;1.00;;;;;;5054603;28;20044;-53
2022/11/16 08:44:21;;;;;;;1.83;0.90;;;17.00;1.00;;;;;;5036557;28;20055;-56
2022/11/16 08:46:51;;;;;;;1.63;0.75;;;17.00;1.00;;;;;;5053177;28;20090;-52
2022/11/16 08:49:29;;;;;;;1.13;0.40;;;17.00;1.00;;;;;;5052619;28;20041;-54
2022/11/16 08:51:56;;;;;;;2.70;0.82;;;17.00;1.00;;;;;;5069532;28;20509;-51
2022/11/16 08:54:23;;;;;;;2.08;0.70;;;17.00;1.00;;;;;;5054285;28;20037;-53
2022/11/16 08:56:50;;;;;;;3.13;1.17;;;17.00;1.00;;;;;;5069660;28;20052;-51
2022/11/16 08:59:17;;;;;;;2.58;0.93;;;17.00;1.00;;;;;;5052685;28;20444;-51
2022/11/16 09:01:51;;;;;;;2.65;1.13;;;17.00;1.00;;;;;;5052696;28;20051;-50
2022/11/16 09:04:18;;;;;;;3.45;1.38;;;17.00;1.00;;;;;;5054139;28;20041;-50
2022/11/16 09:06:45;;;;;;;2.25;0.75;;;17.10;1.00;;;;;;5054048;28;20049;-51
2022/11/16 09:09:12;;;;;;;1.90;0.80;;;17.10;1.00;;;;;;5053631;28;20383;-55
2022/11/16 09:11:38;;;;;;;3.08;1.00;;;17.10;1.00;;;;;;5052411;28;20053;-56
2022/11/16 09:14:05;;;;;;;2.33;0.90;;;17.10;1.00;;;;;;5053874;28;20045;-54
2022/11/16 09:16:32;;;;;;;3.50;1.17;;;17.10;1.00;;;;;;5053784;28;20518;-51
2022/11/16 09:19:00;;;;;;;2.88;0.70;;;17.10;1.00;;;;;;5053447;28;20044;-52
2022/11/16 09:21:29;;;;;;;1.65;0.95;;;17.10;1.00;;;;;;5053609;28;20056;-56
2022/11/16 09:23:56;;;;;;;4.57;0.90;;;17.20;1.00;;;;;;5053781;28;20048;-56
2022/11/16 09:26:25;;;;;;;1.85;0.65;;;17.20;1.00;;;;;;5053694;28;20402;-54
2022/11/16 09:28:54;;;;;;;3.35;0.90;;;17.20;1.00;;;;;;5053297;28;20096;-54
2022/11/16 09:31:21;;;;;;;1.95;0.88;;;17.20;1.00;;;;;;5053472;28;20056;-51
2022/11/16 09:33:50;;;;;;;2.20;1.13;;;17.20;1.00;;;;;;5053457;28;20033;-54
2022/11/16 09:36:16;;;;;;;2.03;0.80;;;17.30;1.00;;;;;;5053421;28;20041;-56
2022/11/16 09:38:45;;;;;;;2.47;0.90;;;17.30;1.00;;;;;;5052315;28;20039;-56
2022/11/16 09:41:44;;;;;;;2.20;0.88;;;17.30;1.00;;;;;;5052407;28;20445;-51
2022/11/16 09:44:31;;;;;;;2.78;1.02;;;17.30;1.00;;;;;;5053388;28;20044;-55
2022/11/16 09:46:59;;;;;;;2.13;1.05;;;17.30;1.00;;;;;;5053073;28;20043;-55
2022/11/16 09:49:39;;;;;;;2.35;0.70;;;17.30;1.00;;;;;;5052627;28;20552;-54
2022/11/16 09:52:14;;;;;;;1.38;0.70;;;17.40;1.00;;;;;;5053101;28;20052;-55
2022/11/16 09:54:43;;;;;;;1.50;0.52;;;17.40;1.00;;;;;;5053121;28;20409;-54
2022/11/16 09:57:14;;;;;;;1.20;0.55;;;17.40;1.00;;;;;;5053001;28;20049;-55
2022/11/16 09:59:48;;;;;;;2.90;1.10;;;17.40;1.00;;;;;;5052637;28;20095;-50
2022/11/16 10:02:40;;;;;;;4.03;0.93;;;17.40;1.00;;;;;;5052851;28;20486;-54
2022/11/16 10:05:17;;;;;;;2.00;0.80;;;17.50;1.00;;;;;;5052981;28;20041;-53
2022/11/16 10:07:48;;;;;;;2.03;1.33;;;17.40;1.00;;;;;;5052914;28;20041;-50
2022/11/16 10:10:17;;;;;;;3.42;0.73;;;17.50;1.00;;;;;;5052502;28;20045;-53
2022/11/16 10:13:10;;;;;;;2.83;0.65;;;17.40;1.00;;;;;;5052596;28;20102;-53
2022/11/16 10:15:56;;;;;;;3.13;0.60;;;17.50;1.00;;;;;;5052796;28;20041;-55
2022/11/16 10:19:02;;;;;;;2.33;0.73;;;17.50;1.00;;;;;;5052348;28;20409;-54
2022/11/16 10:21:49;;;;;;;2.15;0.98;;;17.50;1.00;;;;;;5052626;28;20033;-53
2022/11/16 10:24:43;;;;;;;1.92;0.82;;;17.50;1.00;;;;;;5052715;28;20033;-51
2022/11/16 10:27:34;;;;;;;3.05;0.85;;;17.60;1.00;;;;;;5052433;28;20051;-51
2022/11/16 10:30:14;;;;;;;4.05;0.85;;;17.60;1.00;;;;;;5052301;28;20070;-52
2022/11/16 10:32:53;;;;;;;1.13;0.63;;;17.60;1.00;;;;;;5052490;28;20499;-53
2022/11/16 10:35:29;;;;;;;1.65;0.50;;;17.60;1.00;;;;;;5052294;28;20045;-53
2022/11/16 10:37:58;;;;;;;2.15;0.60;;;17.60;1.00;;;;;;5052428;28;20041;-50
2022/11/16 10:40:28;;;;;;;3.50;0.80;;;17.60;1.00;;;;;;5052295;28;20098;-54
2022/11/16 10:43:20;;;;;;;4.88;1.40;;;17.60;1.00;;;;;;5052474;28;20383;-53
2022/11/16 10:46:20;;;;;;;1.25;0.45;;;17.60;1.00;;;;;;5052583;28;20037;-54
2022/11/16 10:49:14;;;;;;;2.08;0.63;;;17.60;1.00;;;;;;5051920;28;20041;-54
2022/11/16 10:51:41;;;;;;;;;;;17.60;1.00;;;;;;5056963;28;20041;-53
2022/11/16 10:54:15;;;;;;;1.45;0.70;;;17.60;1.00;;;;;;5056384;28;19920;-55
2022/11/16 10:56:46;;;;;;;2.17;0.80;;;17.60;1.00;;;;;;5056361;28;20048;-52
2022/11/16 10:59:16;;;;;;;3.03;0.68;;;17.60;1.00;;;;;;5055955;28;20143;-54
2022/11/16 11:01:49;;;;;;;1.52;0.82;;;17.60;1.00;;;;;;5056222;28;20116;-54
2022/11/16 11:04:27;;;;;;;1.63;0.73;;;17.60;1.00;;;;;;5056143;28;20048;-54
2022/11/16 11:06:59;;;;;;;2.00;0.40;;;17.60;1.00;;;;;;5056326;28;20470;-52
2022/11/16 11:09:29;;;;;;;1.58;0.60;;;17.60;1.00;;;;;;5054458;28;20063;-52
2022/11/16 11:15:24;;;;;;;1.83;0.60;;;17.70;1.00;;;;;;5056163;28;20037;-55
2022/11/16 11:18:11;;;;;;;1.83;0.73;;;17.70;1.00;;;;;;5054843;28;20398;-55
2022/11/16 11:20:40;;;;;;;2.22;0.60;;;17.70;1.00;;;;;;5055688;28;20144;-57
2022/11/16 11:23:17;;;;;;;2.67;0.63;;;17.70;1.00;;;;;;5055813;28;20063;-51
2022/11/16 11:26:03;;;;;;;2.35;0.82;;;17.60;1.00;;;;;;5056115;28;20083;-54
2022/11/16 11:28:33;;;;;;;3.50;0.77;;;17.70;1.00;;;;;;5055557;28;20444;-54
2022/11/16 11:31:53;;;;;;;2.45;0.60;;;17.70;1.00;;;;;;5055686;28;20041;-56
2022/11/16 11:34:29;;;;;;;3.75;0.80;;;17.70;1.00;;;;;;5013763;28;20053;-56
2022/11/16 11:37:00;;;;;;;2.47;0.80;;;17.70;1.00;;;;;;5050128;28;20059;-53
2022/11/16 11:39:30;;;;;;;7.30;1.48;;;17.60;1.00;;;;;;5055277;28;20079;-55
2022/11/16 11:42:05;;;;;;;2.85;0.47;;;17.60;1.00;;;;;;5055620;28;20199;-56
2022/11/16 11:44:46;;;;;;;3.00;1.15;;;17.60;1.00;;;;;;5055470;28;20047;-54
2022/11/16 11:47:13;;;;;;;2.38;0.80;;;17.60;1.00;;;;;;5055508;28;20091;-52
2022/11/16 11:50:37;;;;;;;4.78;0.95;;;17.60;1.00;;;;;;5055115;28;20048;-53
2022/11/16 11:53:23;;;;;;;4.50;1.73;;;17.60;1.00;;;;;;5055394;28;20045;-52
2022/11/16 11:55:55;;;;;;;6.72;2.20;;;17.60;1.00;;;;;;5055624;28;20041;-55
2022/11/16 12:01:36;;;;;;;5.53;1.92;;;17.60;1.00;;;;;;4798340;24;20637;-50
2022/11/16 12:04:43;;;;;;;3.42;1.63;;;17.60;1.00;;;;;;4771851;30;20514;-51
2022/11/16 12:07:38;;;;;;;3.55;1.70;;;17.50;1.00;;;;;;4788325;30;20116;-51
2022/11/16 12:11:04;;;;;;;34.08;4.90;;;17.50;1.00;;;;;;4793105;29;20038;-56
2022/11/16 12:49:00;;;;;;;7.47;1.85;;;17.40;1.00;;;;;;5311029;24;20156;-47
2022/11/16 12:51:57;;;;;;;6.28;1.67;;;17.40;1.00;;;;;;4822732;29;20058;-48
2022/11/16 12:54:33;;;;;;;3.78;1.52;;;17.40;1.00;;;;;;4825229;29;20042;-48
2022/11/16 12:57:15;;;;;;;5.57;2.30;;;17.30;1.00;;;;;;4825356;29;20057;-47
2022/11/16 12:59:56;;;;;;;7.07;2.00;;;17.30;1.00;;;;;;4824489;29;20412;-47
2022/11/16 13:02:48;;;;;;;3.90;1.65;;;17.30;1.00;;;;;;4825427;29;20458;-46
2022/11/16 13:05:24;;;;;;;3.22;1.77;;;17.30;1.00;;;;;;4825119;29;20442;-47
2022/11/16 13:07:56;;;;;;;5.10;1.83;;;17.30;1.00;;;;;;4824947;29;20042;-46
2022/11/16 13:10:45;;;;;;;4.82;1.80;;;17.30;1.00;;;;;;4824895;29;20046;-46
2022/11/16 13:13:18;;;;;;;6.80;1.55;;;17.30;1.00;;;;;;4824124;29;20061;-47
2022/11/16 13:16:05;;;;;;;6.05;1.67;;;17.30;1.00;;;;;;4825113;29;20051;-47
2022/11/16 13:18:37;;;;;;;4.22;1.70;;;17.30;1.00;;;;;;4823839;29;20442;-46
2022/11/16 13:21:17;;;;;;;5.38;1.08;;;17.30;1.00;;;;;;4808370;29;20401;-47
2022/11/16 13:24:01;;;;;;;11.18;1.80;;;17.30;1.00;;;;;;4825155;29;20054;-47
2022/11/16 13:26:49;;;;;;;3.97;1.50;;;17.20;1.00;;;;;;4823520;29;20054;-47
2022/11/16 13:29:26;;;;;;;8.70;1.63;;;17.30;1.00;;;;;;4823920;29;20046;-48
2022/11/16 13:32:13;;;;;;;7.85;1.27;;;17.30;1.00;;;;;;4824316;29;20055;-47
2022/11/16 13:34:40;;;;;;;3.42;1.35;;;17.30;1.00;;;;;;4823426;29;20058;-46
2022/11/16 13:37:38;;;;;;;5.13;1.80;;;17.30;1.00;;;;;;4824799;29;20050;-47
2022/11/16 13:40:04;;;;;;;5.25;1.20;;;17.30;1.00;;;;;;4824272;29;20042;-47
2022/11/16 13:42:44;;;;;;;5.00;1.33;;;17.30;1.00;;;;;;4824765;29;20187;-48
2022/11/16 13:45:20;;;;;;;5.15;0.80;;;17.30;1.00;;;;;;4824453;29;20050;-48
2022/11/16 13:47:55;;;;;;;4.32;1.33;;;17.20;1.00;;;;;;4824429;29;20053;-47
2022/11/16 13:50:46;;;;;;;4.47;1.20;;;17.30;1.00;;;;;;4824308;29;20058;-49
2022/11/16 13:53:32;;;;;;;8.07;2.63;;;17.20;1.00;;;;;;4824381;29;20050;-46
2022/11/16 13:56:20;;;;;;;4.88;1.10;;;17.30;1.00;;;;;;4824271;29;20050;-51
2022/11/16 13:58:54;;;;;;;4.93;1.00;;;17.30;1.00;;;;;;4824048;29;20074;-47
2022/11/16 14:01:22;;;;;;;4.03;0.85;;;17.30;1.00;;;;;;4824459;29;20497;-47
2022/11/16 14:03:51;;;;;;;6.18;1.15;;;17.20;1.00;;;;;;4822082;29;20051;-47
2022/11/16 14:06:17;;;;;;;7.35;1.40;;;17.20;1.00;;;;;;4823784;29;20050;-46
2022/11/16 14:08:54;;;;;;;2.60;0.85;;;17.20;1.00;;;;;;4823793;29;20070;-47
2022/11/16 14:11:30;;;;;;;5.22;1.17;;;17.30;1.00;;;;;;4823837;29;20046;-47
2022/11/16 14:14:00;;;;;;;3.95;0.63;;;17.20;1.00;;;;;;4823354;29;20048;-47
2022/11/16 14:16:27;;;;;;;2.85;1.10;;;17.20;1.00;;;;;;4822522;29;20046;-48
2022/11/16 14:18:59;;;;;;;3.20;1.02;;;17.20;1.00;;;;;;4823058;29;20107;-48
2022/11/16 14:21:44;;;;;;;7.32;1.20;;;17.20;1.00;;;;;;4823960;29;20090;-47
2022/11/16 14:24:23;;;;;;;1.83;0.90;;;17.20;1.00;;;;;;4823728;29;20046;-46
2022/11/16 14:27:15;;;;;;;3.17;1.30;;;17.20;1.00;;;;;;4824096;29;20038;-46
2022/11/16 14:30:03;;;;;;;4.10;0.95;;;17.20;1.00;;;;;;4823504;29;20057;-47
2022/11/16 14:32:34;;;;;;;4.30;0.98;;;17.20;1.00;;;;;;4824006;29;20054;-49
2022/11/16 14:35:32;;;;;;;2.53;0.90;;;17.20;1.00;;;;;;4823808;29;20625;-46
2022/11/16 14:38:06;;;;;;;3.70;1.17;;;17.20;1.00;;;;;;4823450;29;20042;-48
2022/11/16 14:40:42;;;;;;;5.15;0.90;;;17.20;1.00;;;;;;4823645;29;20039;-50
2022/11/16 14:43:19;;;;;;;8.85;1.80;;;17.20;1.00;;;;;;4822403;29;20049;-46
2022/11/16 14:45:56;;;;;;;3.40;1.40;;;17.20;1.00;;;;;;4823812;29;20051;-46
2022/11/16 14:48:25;;;;;;;5.28;1.20;;;17.20;1.00;;;;;;4823603;29;20157;-47
2022/11/16 14:51:22;;;;;;;2.33;0.82;;;17.20;1.00;;;;;;4823355;29;20080;-46
2022/11/16 14:53:53;;;;;;;2.20;0.80;;;17.20;1.00;;;;;;4823135;29;20557;-47
2022/11/16 14:56:20;;;;;;;5.55;1.15;;;17.20;1.00;;;;;;4823097;29;20107;-47
2022/11/16 14:59:00;;;;;;;3.47;0.80;;;17.20;1.00;;;;;;4822867;29;20085;-46